Time;durP1;ratioP1;P1;durP2;ratioP2;P2;SDS_P1;SDS_P2;PMS_P1;PMS_P2;Temp;Humidity;BMP_temperature;BMP_pressure;BME280_temperature;BME280_humidity;BME280_pressure;Samples;Min_cycle;Max_cycle;Signal;HPM_P1;HPM_P2
2022/12/19 00:01:21;;;;;;;81.70;30.55;;;;;;;-1.58;100.00;101807.69;4973029;28;20454;-78
2022/12/19 00:03:49;;;;;;;89.03;31.67;;;;;;;-1.53;100.00;101809.25;4970274;28;20042;-80
2022/12/19 00:06:16;;;;;;;82.85;31.02;;;;;;;-1.59;100.00;101802.66;4969864;28;20110;-77
2022/12/19 00:08:47;;;;;;;92.85;33.50;;;;;;;-1.54;100.00;101798.25;4966810;28;20130;-77
2022/12/19 00:11:14;;;;;;;82.63;31.60;;;;;;;-1.53;100.00;101804.97;4963260;28;20117;-77
2022/12/19 00:13:41;;;;;;;88.22;32.45;;;;;;;-1.51;100.00;101798.13;4969072;28;20065;-77
2022/12/19 00:16:10;;;;;;;89.47;32.53;;;;;;;-1.47;100.00;101791.22;4962272;28;20050;-78
2022/12/19 00:18:38;;;;;;;94.47;33.30;;;;;;;-1.47;100.00;101796.31;4969746;28;20023;-76
2022/12/19 00:21:07;;;;;;;91.82;32.15;;;;;;;-1.42;100.00;101787.63;4963853;28;20046;-77
2022/12/19 00:23:33;;;;;;;91.90;33.42;;;;;;;-1.41;100.00;101791.03;4971775;28;20026;-77
2022/12/19 00:26:25;;;;;;;95.90;32.45;;;;;;;-1.41;100.00;101770.66;4967766;28;20495;-78
2022/12/19 00:28:54;;;;;;;93.03;33.03;;;;;;;-1.42;100.00;101766.44;4965701;28;20074;-77
2022/12/19 00:31:21;;;;;;;88.75;32.05;;;;;;;-1.42;100.00;101763.91;4964858;28;20105;-78
2022/12/19 00:33:47;;;;;;;84.47;30.33;;;;;;;-1.39;100.00;101751.91;4961561;28;20084;-78
2022/12/19 00:36:16;;;;;;;93.72;34.20;;;;;;;-1.39;100.00;101754.44;4975481;28;20405;-78
2022/12/19 00:38:42;;;;;;;94.10;31.77;;;;;;;-1.36;100.00;101748.41;4964037;28;20031;-79
2022/12/19 00:41:16;;;;;;;93.85;33.95;;;;;;;-1.42;100.00;101756.28;4948410;28;20054;-77
2022/12/19 00:43:45;;;;;;;89.72;34.05;;;;;;;-1.34;100.00;101744.09;4969569;28;20030;-77
2022/12/19 00:46:14;;;;;;;97.72;33.88;;;;;;;-1.35;100.00;101750.09;4962500;28;20043;-78
2022/12/19 00:48:41;;;;;;;96.07;32.58;;;;;;;-1.39;100.00;101754.44;4962198;28;20062;-78
2022/12/19 00:51:10;;;;;;;93.05;34.20;;;;;;;-1.34;100.00;101743.25;4967189;28;20031;-77
2022/12/19 00:53:36;;;;;;;86.65;34.08;;;;;;;-1.31;100.00;101746.53;4980419;28;20030;-78
2022/12/19 00:56:03;;;;;;;88.75;33.47;;;;;;;-1.34;100.00;101738.19;4971856;28;20065;-77
2022/12/19 00:58:29;;;;;;;85.68;31.90;;;;;;;-1.32;100.00;101744.84;4966142;28;20046;-80
2022/12/19 01:00:54;;;;;;;89.18;33.42;;;;;;;-1.34;100.00;101736.44;4948818;28;20047;-77
2022/12/19 01:03:20;;;;;;;93.07;34.17;;;;;;;-1.29;100.00;101738.84;4970541;28;20031;-78
2022/12/19 01:05:45;;;;;;;87.88;32.80;;;;;;;-1.22;100.00;101735.19;4963165;28;20039;-77
2022/12/19 01:08:11;;;;;;;94.03;32.83;;;;;;;-1.18;100.00;101729.09;4954627;28;20028;-78
2022/12/19 01:10:36;;;;;;;108.32;36.33;;;;;;;-1.18;100.00;101732.47;4961853;28;20073;-77
2022/12/19 01:13:02;;;;;;;89.03;32.33;;;;;;;-1.21;100.00;101749.56;4964134;28;20118;-78
2022/12/19 01:15:27;;;;;;;98.90;34.97;;;;;;;-1.15;100.00;101749.34;4963320;28;20038;-77
2022/12/19 01:17:53;;;;;;;99.55;34.63;;;;;;;-1.19;100.00;101740.16;4960362;28;20050;-78
2022/12/19 01:20:20;;;;;;;90.15;35.13;;;;;;;-1.12;100.00;101721.22;4961582;28;20050;-78
2022/12/19 01:22:46;;;;;;;99.28;34.88;;;;;;;-1.09;100.00;101712.63;4951825;28;20647;-78
2022/12/19 01:25:13;;;;;;;88.95;33.80;;;;;;;-1.09;100.00;101699.91;4960262;28;20038;-78
2022/12/19 01:27:39;;;;;;;99.40;34.90;;;;;;;-1.11;100.00;101699.97;4960275;28;20832;-78
2022/12/19 01:30:06;;;;;;;84.80;31.98;;;;;;;-1.00;100.00;101705.50;4965127;28;20043;-77
2022/12/19 01:32:34;;;;;;;92.32;33.90;;;;;;;-1.04;100.00;101698.84;4968777;28;20027;-77
2022/12/19 01:35:00;;;;;;;100.78;34.38;;;;;;;-1.00;100.00;101697.84;4964721;28;20081;-78
2022/12/19 01:37:26;;;;;;;88.72;31.85;;;;;;;-1.05;100.00;101693.81;4966336;28;20643;-77
2022/12/19 01:39:51;;;;;;;90.88;32.33;;;;;;;-0.95;100.00;101691.75;4955501;28;20050;-77
2022/12/19 01:42:19;;;;;;;86.32;30.75;;;;;;;-0.98;100.00;101697.78;4977346;28;20080;-77
2022/12/19 01:45:18;;;;;;;82.85;30.15;;;;;;;-0.91;100.00;101693.28;4964271;28;20053;-78
2022/12/19 01:47:52;;;;;;;82.07;32.15;;;;;;;-0.89;100.00;101676.22;4974829;28;20697;-77
2022/12/19 01:50:35;;;;;;;87.95;33.95;;;;;;;-0.87;100.00;101674.44;4964466;28;20070;-79
2022/12/19 01:53:02;;;;;;;84.88;32.63;;;;;;;-0.91;100.00;101683.91;4963583;28;20043;-77
2022/12/19 01:55:29;;;;;;;79.88;32.00;;;;;;;-0.90;100.00;101667.75;4968562;28;20042;-78
2022/12/19 01:57:55;;;;;;;89.32;31.58;;;;;;;-0.87;100.00;101664.25;4965665;28;20037;-77
2022/12/19 02:00:21;;;;;;;78.93;31.15;;;;;;;-0.83;100.00;101659.00;4962950;28;20039;-78
2022/12/19 02:03:26;;;;;;;85.38;31.13;;;;;;;-0.78;100.00;101648.59;4966520;28;20058;-78
2022/12/19 02:05:53;;;;;;;78.55;30.80;;;;;;;-0.80;100.00;101650.38;4977404;28;20042;-77
2022/12/19 02:08:20;;;;;;;92.75;32.03;;;;;;;-0.74;100.00;101632.31;4969519;28;20023;-77
2022/12/19 02:10:45;;;;;;;82.15;32.50;;;;;;;-0.73;100.00;101621.25;4967538;28;20068;-77
2022/12/19 02:13:13;;;;;;;80.55;29.80;;;;;;;-0.68;100.00;101626.13;4964907;28;20110;-78
2022/12/19 02:16:00;;;;;;;84.70;32.55;;;;;;;-0.72;100.00;101609.31;4973961;28;20532;-78
2022/12/19 02:18:32;;;;;;;84.38;30.48;;;;;;;-0.67;100.00;101600.59;4982392;28;20057;-78
2022/12/19 02:21:13;;;;;;;88.43;32.05;;;;;;;-0.60;100.00;101602.00;4968881;28;20031;-78
2022/12/19 02:24:06;;;;;;;84.15;31.33;;;;;;;-0.62;100.00;101592.78;4986684;28;20065;-79
2022/12/19 02:26:45;;;;;;;91.88;32.78;;;;;;;-0.63;100.00;101588.56;4966894;28;20037;-78
2022/12/19 02:29:48;;;;;;;82.68;31.45;;;;;;;-0.56;100.00;101581.50;4959951;28;20030;-77
2022/12/19 02:32:21;;;;;;;75.28;28.23;;;;;;;-0.57;100.00;101579.84;4973224;28;20057;-80
2022/12/19 02:35:03;;;;;;;88.97;31.05;;;;;;;-0.51;100.00;101575.31;4951586;28;20432;-80
2022/12/19 02:37:53;;;;;;;87.60;31.15;;;;;;;-0.54;100.00;101582.25;4970018;28;20121;-77
2022/12/19 02:40:22;;;;;;;79.78;29.88;;;;;;;-0.55;100.00;101578.88;4964740;28;20093;-78
2022/12/19 02:42:56;;;;;;;82.57;30.15;;;;;;;-0.48;100.00;101574.34;4973699;28;20046;-79
2022/12/19 02:45:22;;;;;;;76.15;27.27;;;;;;;-0.49;100.00;101580.31;4966743;28;20035;-78
2022/12/19 02:47:48;;;;;;;90.38;31.33;;;;;;;-0.47;100.00;101581.09;4966483;28;20030;-78
2022/12/19 02:50:13;;;;;;;86.25;32.03;;;;;;;-0.41;100.00;101585.94;4961250;28;20694;-78
2022/12/19 02:52:45;;;;;;;86.65;30.98;;;;;;;-0.45;100.00;101589.53;4968912;28;20035;-78
2022/12/19 02:55:15;;;;;;;79.00;28.70;;;;;;;-0.35;100.00;101582.31;4984775;28;20106;-78
2022/12/19 02:57:50;;;;;;;76.20;30.20;;;;;;;-0.41;100.00;101575.75;4965976;28;20165;-77
2022/12/19 03:00:25;;;;;;;76.82;30.00;;;;;;;-0.40;100.00;101574.84;4967231;28;20047;-78
2022/12/19 03:03:27;;;;;;;79.45;28.98;;;;;;;-0.37;100.00;101579.81;4967319;28;20034;-78
2022/12/19 03:06:23;;;;;;;80.53;29.85;;;;;;;-0.40;100.00;101565.50;4963746;28;20106;-79
2022/12/19 03:08:58;;;;;;;89.78;30.92;;;;;;;-0.36;100.00;101572.97;4964652;28;20144;-78
2022/12/19 03:11:31;;;;;;;77.40;29.95;;;;;;;-0.33;100.00;101557.56;4966493;28;20507;-79
2022/12/19 03:14:01;;;;;;;79.57;30.95;;;;;;;-0.37;100.00;101554.31;4965265;28;20035;-78
2022/12/19 03:16:27;;;;;;;83.90;32.22;;;;;;;-0.36;100.00;101566.16;4962280;28;20039;-78
2022/12/19 03:18:53;;;;;;;85.20;30.83;;;;;;;-0.34;100.00;101566.94;4958674;28;20058;-78
2022/12/19 03:21:36;;;;;;;84.68;31.50;;;;;;;-0.48;100.00;101561.59;4959936;28;20046;-78
2022/12/19 03:24:04;;;;;;;81.28;31.15;;;;;;;-0.41;100.00;101570.66;4967272;28;20168;-78
2022/12/19 03:26:52;;;;;;;91.20;32.65;;;;;;;-0.41;100.00;101563.00;4960530;28;20053;-77
2022/12/19 03:29:31;;;;;;;86.75;30.88;;;;;;;-0.34;100.00;101554.19;4949023;28;20459;-78
2022/12/19 03:32:01;;;;;;;86.72;32.65;;;;;;;-0.32;100.00;101559.22;4964067;28;20049;-78
2022/12/19 03:34:53;;;;;;;94.13;33.42;;;;;;;-0.32;100.00;101549.00;4965851;28;20035;-79
2022/12/19 03:37:23;;;;;;;90.15;32.72;;;;;;;-0.37;100.00;101554.31;4966074;28;20101;-78
2022/12/19 03:39:54;;;;;;;93.43;33.38;;;;;;;-0.32;100.00;101539.66;4969299;28;20051;-78
2022/12/19 03:45:10;;;;;;;90.43;33.35;;;;;;;-0.37;100.00;101548.41;4968860;28;20042;-78
2022/12/19 03:47:40;;;;;;;87.40;31.85;;;;;;;-0.30;100.00;101550.63;4970422;28;20649;-82
2022/12/19 03:50:08;;;;;;;95.82;34.70;;;;;;;-0.34;100.00;101540.59;4951882;28;20062;-80
2022/12/19 03:52:59;;;;;;;93.88;35.55;;;;;;;-0.31;100.00;101543.84;4985995;28;20035;-79
2022/12/19 03:55:33;;;;;;;93.60;32.70;;;;;;;-0.26;100.00;101539.38;4959367;28;20109;-79
2022/12/19 03:58:06;;;;;;;91.82;33.17;;;;;;;-0.33;100.00;101538.00;4970329;28;20038;-78
2022/12/19 04:00:34;;;;;;;;;;;;;;;-0.33;100.00;101530.34;4969248;28;20124;-79
2022/12/19 04:03:02;;;;;;;109.82;33.08;;;;;;;-0.33;100.00;101535.44;4968087;28;19953;-78
2022/12/19 04:05:28;;;;;;;93.97;31.95;;;;;;;-0.32;100.00;101524.38;4978527;28;20592;-79
2022/12/19 04:07:57;;;;;;;97.28;34.28;;;;;;;-0.30;100.00;101535.31;4966679;28;20026;-78
2022/12/19 04:10:25;;;;;;;95.07;33.35;;;;;;;-0.22;100.00;101535.81;4959735;28;20087;-80
2022/12/19 04:13:10;;;;;;;98.60;34.45;;;;;;;-0.28;100.00;101530.16;4983057;28;20049;-79
2022/12/19 04:15:49;;;;;;;94.35;34.42;;;;;;;-0.19;100.00;101529.72;4987116;28;20035;-78
2022/12/19 04:18:17;;;;;;;85.65;33.15;;;;;;;-0.20;100.00;101528.91;4963120;28;20118;-79
2022/12/19 04:20:50;;;;;;;94.50;34.38;;;;;;;-0.16;100.00;101531.34;4967827;28;20670;-78
2022/12/19 04:23:32;;;;;;;91.75;33.83;;;;;;;-0.17;100.00;101533.06;4965182;28;20031;-79
2022/12/19 04:26:01;;;;;;;107.10;35.88;;;;;;;-0.12;100.00;101525.19;4968231;28;20043;-79
2022/12/19 04:28:47;;;;;;;98.63;35.97;;;;;;;-0.12;100.00;101533.66;4966758;28;20098;-79
2022/12/19 04:31:15;;;;;;;108.85;35.10;;;;;;;-0.04;100.00;101535.88;4984795;28;20034;-79
2022/12/19 04:33:40;;;;;;;106.85;34.42;;;;;;;-0.08;100.00;101542.81;4983978;28;20484;-79
2022/12/19 04:36:06;;;;;;;105.18;36.58;;;;;;;-0.05;100.00;101547.78;4968302;28;20082;-80
2022/12/19 04:38:32;;;;;;;102.57;36.22;;;;;;;0.01;100.00;101540.78;4968720;28;20572;-78
2022/12/19 04:40:57;;;;;;;98.18;35.78;;;;;;;-0.03;100.00;101534.97;4963809;28;20551;-79
2022/12/19 04:43:22;;;;;;;105.38;35.15;;;;;;;0.03;100.00;101532.16;4965095;28;20035;-79
2022/12/19 04:45:48;;;;;;;98.13;34.63;;;;;;;-0.01;100.00;101540.84;4966747;28;20086;-79
2022/12/19 04:48:13;;;;;;;98.63;33.33;;;;;;;0.08;100.00;101534.50;4963965;28;20031;-79
2022/12/19 04:50:39;;;;;;;101.70;34.55;;;;;;;0.13;100.00;101533.41;4964202;28;20043;-79
2022/12/19 04:53:05;;;;;;;103.93;36.85;;;;;;;0.14;100.00;101542.69;4950891;28;20093;-78
2022/12/19 04:55:30;;;;;;;95.53;34.65;;;;;;;0.13;100.00;101535.94;4954703;28;20058;-79
2022/12/19 04:57:56;;;;;;;99.85;35.13;;;;;;;0.07;100.00;101541.31;4969672;28;20089;-79
2022/12/19 05:00:21;;;;;;;103.10;36.72;;;;;;;0.12;100.00;101530.91;4943649;28;20038;-79
2022/12/19 05:02:47;;;;;;;104.78;36.20;;;;;;;0.13;100.00;101523.19;4963579;28;20039;-79
2022/12/19 05:05:12;;;;;;;105.32;35.67;;;;;;;0.17;100.00;101528.94;4949995;28;20034;-79
2022/12/19 05:07:39;;;;;;;107.55;36.03;;;;;;;0.18;100.00;101525.53;4967519;28;20038;-78
2022/12/19 05:10:05;;;;;;;100.75;35.90;;;;;;;0.16;100.00;101525.59;4948556;28;20054;-79
2022/12/19 05:12:31;;;;;;;107.03;36.63;;;;;;;0.15;100.00;101521.41;4953308;28;20038;-84
2022/12/19 05:14:56;;;;;;;101.82;35.10;;;;;;;0.16;100.00;101519.66;4964183;28;20078;-79
2022/12/19 05:17:22;;;;;;;113.07;36.88;;;;;;;0.14;100.00;101517.19;4952456;28;20031;-79
2022/12/19 05:19:47;;;;;;;112.45;38.63;;;;;;;0.16;100.00;101520.47;4969298;28;20070;-79
2022/12/19 05:22:13;;;;;;;98.05;35.92;;;;;;;0.15;100.00;101523.09;4963212;28;20030;-80
2022/12/19 05:24:38;;;;;;;118.68;38.28;;;;;;;0.16;100.00;101524.75;4956701;28;20085;-80
2022/12/19 05:27:03;;;;;;;103.97;36.50;;;;;;;0.21;100.00;101521.97;4965927;28;20035;-79
2022/12/19 05:29:29;;;;;;;104.13;36.85;;;;;;;0.27;100.00;101527.63;4968951;28;20044;-79
2022/12/19 05:31:55;;;;;;;105.68;35.65;;;;;;;0.14;100.00;101537.59;4966143;28;20427;-80
2022/12/19 05:34:20;;;;;;;106.97;35.70;;;;;;;0.33;100.00;101523.97;4966968;28;20050;-79
2022/12/19 05:36:46;;;;;;;107.18;38.17;;;;;;;0.30;100.00;101542.81;4962373;28;20042;-79
2022/12/19 05:39:11;;;;;;;105.20;36.40;;;;;;;0.31;100.00;101534.25;4967587;28;20035;-80
2022/12/19 05:41:37;;;;;;;102.10;36.80;;;;;;;0.28;100.00;101536.94;4947957;28;20058;-79
2022/12/19 05:44:02;;;;;;;100.20;36.88;;;;;;;0.45;100.00;101536.16;4963593;28;20031;-79
2022/12/19 05:46:27;;;;;;;95.43;36.33;;;;;;;0.29;100.00;101541.16;4975054;28;20035;-80
2022/12/19 05:48:53;;;;;;;96.82;35.50;;;;;;;0.33;100.00;101535.00;4965796;28;20579;-80
2022/12/19 05:51:19;;;;;;;110.05;38.92;;;;;;;0.49;100.00;101526.63;4964191;28;20578;-81
2022/12/19 05:53:45;;;;;;;109.70;36.50;;;;;;;0.47;100.00;101526.72;4965025;28;20117;-79
2022/12/19 05:56:20;;;;;;;106.05;36.72;;;;;;;0.53;100.00;101510.28;4961702;28;20062;-79
2022/12/19 05:58:46;;;;;;;111.43;36.83;;;;;;;0.46;100.00;101526.78;4978498;28;20043;-79
2022/12/19 06:01:15;;;;;;;112.35;37.45;;;;;;;0.56;100.00;101522.88;4972438;28;20569;-79
2022/12/19 06:03:40;;;;;;;107.18;35.65;;;;;;;0.52;100.00;101532.41;4974248;28;20138;-80
2022/12/19 06:06:09;;;;;;;106.22;37.50;;;;;;;0.60;100.00;101538.88;4964476;28;20050;-80
2022/12/19 06:08:34;;;;;;;105.72;35.35;;;;;;;0.58;100.00;101526.19;4961676;28;20093;-78
2022/12/19 06:11:02;;;;;;;106.43;34.75;;;;;;;0.61;100.00;101538.81;4951001;28;20035;-79
2022/12/19 06:13:29;;;;;;;109.90;37.85;;;;;;;0.71;100.00;101541.75;4966400;28;20037;-79
2022/12/19 06:16:21;;;;;;;110.72;35.65;;;;;;;0.67;100.00;101542.78;4969603;28;20066;-80
2022/12/19 06:18:47;;;;;;;108.35;37.63;;;;;;;0.70;100.00;101540.09;4960962;28;20093;-79
2022/12/19 06:21:15;;;;;;;113.88;34.95;;;;;;;0.67;100.00;101545.34;4967600;28;20879;-79
2022/12/19 06:23:42;;;;;;;106.28;35.42;;;;;;;0.68;100.00;101539.31;4970396;28;20039;-79
2022/12/19 06:26:10;;;;;;;104.25;35.75;;;;;;;0.73;100.00;101540.75;4964344;28;20031;-79
2022/12/19 06:28:36;;;;;;;105.78;34.50;;;;;;;0.71;100.00;101541.75;4949870;28;20043;-79
2022/12/19 06:31:03;;;;;;;105.10;36.15;;;;;;;0.77;100.00;101521.84;4949877;28;20055;-81
2022/12/19 06:33:30;;;;;;;117.05;36.53;;;;;;;0.74;100.00;101541.59;4980325;28;20584;-78
2022/12/19 06:36:03;;;;;;;99.15;34.63;;;;;;;0.76;100.00;101532.97;4971507;28;20030;-79
2022/12/19 06:38:28;;;;;;;;;;;;;;;0.83;100.00;101527.53;4956386;28;20562;-79
2022/12/19 06:43:39;;;;;;;110.28;34.28;;;;;;;0.82;100.00;101531.84;4966420;28;20048;-79
2022/12/19 06:46:05;;;;;;;104.55;34.97;;;;;;;0.79;100.00;101529.41;4963167;28;20130;-79
2022/12/19 06:48:30;;;;;;;96.93;35.65;;;;;;;0.91;100.00;101530.56;4965174;28;20019;-79
2022/12/19 06:50:56;;;;;;;99.07;35.65;;;;;;;0.85;100.00;101529.13;4968192;28;20045;-79
2022/12/19 06:53:22;;;;;;;95.82;36.60;;;;;;;0.88;100.00;101528.16;4968467;28;20109;-79
2022/12/19 06:55:51;;;;;;;100.22;35.05;;;;;;;0.96;100.00;101524.34;4965673;28;20154;-81
2022/12/19 06:58:16;;;;;;;106.30;35.53;;;;;;;0.94;100.00;101526.13;4963065;28;20574;-80
2022/12/19 07:00:42;;;;;;;102.45;37.78;;;;;;;1.00;100.00;101519.06;4960845;28;20043;-78
2022/12/19 07:03:10;;;;;;;90.78;33.47;;;;;;;1.02;100.00;101524.91;4967594;28;20476;-79
2022/12/19 07:05:37;;;;;;;107.68;35.30;;;;;;;1.06;100.00;101527.25;4964209;28;20100;-79
2022/12/19 07:08:02;;;;;;;99.30;35.85;;;;;;;1.09;100.00;101519.44;4965567;28;20122;-79
2022/12/19 07:10:29;;;;;;;97.32;36.03;;;;;;;1.03;100.00;101529.13;4965884;28;20121;-79
2022/12/19 07:12:54;;;;;;;96.38;33.83;;;;;;;1.04;100.00;101530.78;4968518;28;20482;-80
2022/12/19 07:15:20;;;;;;;90.43;34.95;;;;;;;1.11;100.00;101532.13;4979276;28;20039;-79
2022/12/19 07:17:45;;;;;;;99.13;36.75;;;;;;;1.09;100.00;101531.38;4966417;28;20038;-79
2022/12/19 07:20:12;;;;;;;93.80;34.05;;;;;;;1.14;100.00;101527.69;4955936;28;20516;-80
2022/12/19 07:22:38;;;;;;;102.65;38.35;;;;;;;1.16;100.00;101530.16;4969207;28;20042;-79
2022/12/19 07:25:05;;;;;;;100.72;36.15;;;;;;;1.21;100.00;101540.16;4968787;28;20073;-79
2022/12/19 07:27:31;;;;;;;91.90;34.53;;;;;;;1.33;100.00;101537.78;4966786;28;20034;-79
2022/12/19 07:29:56;;;;;;;102.57;37.63;;;;;;;1.22;100.00;101544.34;4946228;28;20065;-80
2022/12/19 07:32:22;;;;;;;95.97;36.15;;;;;;;1.12;100.00;101534.59;4963358;28;20039;-79
2022/12/19 07:34:47;;;;;;;96.68;35.55;;;;;;;1.20;100.00;101536.75;4971771;28;20039;-80
2022/12/19 07:37:13;;;;;;;100.63;36.63;;;;;;;1.16;100.00;101550.59;4950499;28;20033;-81
2022/12/19 07:39:38;;;;;;;97.03;36.17;;;;;;;1.39;100.00;101541.78;4953684;28;20059;-79
2022/12/19 07:42:04;;;;;;;106.75;36.05;;;;;;;1.35;100.00;101538.53;4966838;28;20385;-79
2022/12/19 07:44:35;;;;;;;114.78;40.55;;;;;;;1.39;100.00;101539.22;4966060;28;20031;-79
2022/12/19 07:47:00;;;;;;;104.05;35.92;;;;;;;1.46;100.00;101532.06;4970921;28;20038;-79
2022/12/19 07:49:26;;;;;;;115.82;44.95;;;;;;;1.46;100.00;101534.63;4940966;28;20042;-79
2022/12/19 07:51:51;;;;;;;122.80;44.25;;;;;;;1.46;100.00;101550.78;4970029;28;20041;-79
2022/12/19 07:54:16;;;;;;;91.93;35.80;;;;;;;1.59;100.00;101542.50;4969554;28;20045;-78
2022/12/19 07:56:42;;;;;;;90.53;31.45;;;;;;;1.57;100.00;101541.75;4953262;28;20042;-79
2022/12/19 07:59:07;;;;;;;87.57;32.97;;;;;;;1.62;100.00;101540.59;4967674;28;20027;-80
2022/12/19 08:01:33;;;;;;;82.07;30.95;;;;;;;1.68;100.00;101542.03;4963460;28;20046;-79
2022/12/19 08:03:58;;;;;;;85.45;32.08;;;;;;;1.69;100.00;101535.97;4971549;28;20073;-78
2022/12/19 08:06:24;;;;;;;77.00;30.98;;;;;;;1.74;100.00;101547.63;4968440;28;20596;-79
2022/12/19 08:08:50;;;;;;;85.50;31.38;;;;;;;1.73;100.00;101543.44;4965858;28;20057;-79
2022/12/19 08:11:21;;;;;;;75.07;29.58;;;;;;;1.77;100.00;101543.25;4966791;28;20039;-78
2022/12/19 08:13:46;;;;;;;79.82;30.67;;;;;;;1.86;100.00;101550.44;4966353;28;20049;-79
2022/12/19 08:16:12;;;;;;;76.75;28.92;;;;;;;1.86;100.00;101550.44;4962865;28;20039;-79
2022/12/19 08:18:38;;;;;;;72.00;30.13;;;;;;;1.77;100.00;101559.41;4967007;28;20039;-79
2022/12/19 08:21:03;;;;;;;78.75;29.95;;;;;;;1.78;100.00;101558.50;4966795;28;20113;-79
2022/12/19 08:23:29;;;;;;;75.85;27.65;;;;;;;1.79;100.00;101567.84;4965011;28;20031;-77
2022/12/19 08:25:59;;;;;;;76.93;27.45;;;;;;;1.91;100.00;101568.94;4965117;28;20474;-78
2022/12/19 08:28:24;;;;;;;75.93;27.77;;;;;;;1.95;100.00;101566.13;4969606;28;20429;-78
2022/12/19 08:30:50;;;;;;;77.78;29.67;;;;;;;1.93;100.00;101562.00;4977020;28;20097;-78
2022/12/19 08:33:15;;;;;;;76.10;28.90;;;;;;;2.03;100.00;101570.00;4966519;28;20562;-78
2022/12/19 08:35:40;;;;;;;67.65;27.17;;;;;;;1.98;100.00;101565.16;4967014;28;20650;-78
2022/12/19 08:38:06;;;;;;;65.07;27.80;;;;;;;2.08;100.00;101555.25;4963625;28;20535;-78
2022/12/19 08:40:31;;;;;;;78.13;29.10;;;;;;;2.14;100.00;101552.34;4960817;28;20043;-78
2022/12/19 08:42:57;;;;;;;72.25;27.92;;;;;;;2.11;100.00;101537.16;4957478;28;20039;-78
2022/12/19 08:45:22;;;;;;;73.65;29.13;;;;;;;2.18;100.00;101532.53;4958645;28;20040;-79
2022/12/19 08:47:47;;;;;;;67.38;28.48;;;;;;;2.19;100.00;101523.97;4951943;28;20039;-78
2022/12/19 08:50:13;;;;;;;75.07;29.52;;;;;;;2.12;100.00;101537.06;4955745;28;20031;-78
2022/12/19 08:52:38;;;;;;;73.63;29.35;;;;;;;2.11;100.00;101545.69;4972757;28;20042;-79
2022/12/19 08:55:04;;;;;;;74.80;29.45;;;;;;;2.18;100.00;101529.97;4986479;28;20057;-79
2022/12/19 08:57:30;;;;;;;76.43;29.10;;;;;;;2.28;100.00;101542.19;4968559;28;20114;-79
2022/12/19 08:59:55;;;;;;;74.97;28.63;;;;;;;2.25;100.00;101550.03;4969598;28;20039;-78
2022/12/19 09:02:21;;;;;;;69.05;27.00;;;;;;;2.23;100.00;101551.84;4975225;28;20066;-79
2022/12/19 09:04:46;;;;;;;71.38;27.40;;;;;;;2.30;100.00;101547.25;4973738;28;20057;-78
2022/12/19 09:07:12;;;;;;;75.55;28.55;;;;;;;2.27;100.00;101547.41;4970920;28;20803;-79
2022/12/19 09:09:38;;;;;;;70.55;27.92;;;;;;;2.30;100.00;101548.06;4968811;28;20093;-78
2022/12/19 09:12:03;;;;;;;71.60;29.92;;;;;;;2.37;100.00;101542.59;4968854;28;20455;-79
2022/12/19 09:14:32;;;;;;;66.05;27.20;;;;;;;2.41;100.00;101544.06;4989145;28;20394;-79
2022/12/19 09:16:59;;;;;;;72.85;27.80;;;;;;;2.32;100.00;101548.78;4969461;28;20038;-79
2022/12/19 09:19:25;;;;;;;68.97;28.60;;;;;;;2.39;100.00;101533.91;4978662;28;20035;-78
2022/12/19 09:21:50;;;;;;;75.22;30.30;;;;;;;2.48;100.00;101535.97;4968684;28;20609;-79
2022/12/19 09:24:15;;;;;;;66.75;27.48;;;;;;;2.39;100.00;101538.22;4970714;28;20042;-79
2022/12/19 09:26:42;;;;;;;63.83;27.98;;;;;;;2.44;100.00;101534.47;4951907;28;20041;-78
2022/12/19 09:29:08;;;;;;;73.10;27.33;;;;;;;2.41;100.00;101523.59;4970442;28;20038;-79
2022/12/19 09:31:34;;;;;;;71.00;28.88;;;;;;;2.51;100.00;101524.75;4968994;28;20046;-79
2022/12/19 09:33:59;;;;;;;67.88;27.65;;;;;;;2.58;100.00;101523.50;4978270;28;20159;-79
2022/12/19 09:36:26;;;;;;;69.22;28.08;;;;;;;2.63;100.00;101526.59;4963006;28;20138;-79
2022/12/19 09:38:55;;;;;;;67.03;26.40;;;;;;;2.60;100.00;101531.91;4959135;28;20047;-79
2022/12/19 09:41:55;;;;;;;66.93;26.98;;;;;;;2.72;100.00;101533.75;4973468;28;20034;-79
2022/12/19 09:44:46;;;;;;;66.90;27.25;;;;;;;2.74;100.00;101541.38;4972067;28;20027;-78
2022/12/19 09:47:16;;;;;;;73.18;27.70;;;;;;;2.81;100.00;101536.72;4989549;28;20031;-78
2022/12/19 09:49:44;;;;;;;69.43;27.55;;;;;;;2.89;100.00;101542.22;4967812;28;20035;-79
2022/12/19 09:52:14;;;;;;;61.08;25.95;;;;;;;2.81;100.00;101557.22;4960338;28;20039;-78
2022/12/19 09:55:11;;;;;;;58.47;26.52;;;;;;;2.89;100.00;101550.72;4984162;28;20342;-79
2022/12/19 09:57:49;;;;;;;67.00;26.98;;;;;;;3.00;100.00;101551.88;4987368;28;20113;-78
2022/12/19 10:00:18;;;;;;;71.82;28.67;;;;;;;3.09;100.00;101554.72;4984883;28;20078;-78
2022/12/19 10:02:48;;;;;;;57.03;25.40;;;;;;;2.97;100.00;101559.72;4976419;28;20023;-79
2022/12/19 10:05:37;;;;;;;62.65;26.65;;;;;;;2.93;100.00;101565.00;4969697;28;20089;-79
2022/12/19 10:08:02;;;;;;;76.65;31.35;;;;;;;3.05;100.00;101565.22;4966247;28;20046;-79
2022/12/19 10:10:38;;;;;;;62.33;25.90;;;;;;;3.08;100.00;101562.50;4976315;28;20046;-78
2022/12/19 10:13:28;;;;;;;72.05;28.98;;;;;;;3.23;100.00;101555.66;4957123;28;20027;-79
2022/12/19 10:16:11;;;;;;;68.80;27.30;;;;;;;3.12;100.00;101561.41;4970218;28;20058;-79
2022/12/19 10:18:59;;;;;;;62.38;26.35;;;;;;;3.12;100.00;101557.09;4975128;28;20026;-78
2022/12/19 10:21:46;;;;;;;60.75;26.42;;;;;;;3.24;100.00;101564.97;4964633;28;20057;-79
2022/12/19 10:24:29;;;;;;;58.10;26.92;;;;;;;3.29;100.00;101552.72;4970765;28;20033;-79
2022/12/19 10:26:59;;;;;;;61.97;25.88;;;;;;;3.34;100.00;101558.41;4970436;28;20061;-79
2022/12/19 10:29:54;;;;;;;53.45;23.88;;;;;;;3.39;100.00;101547.88;4966626;28;20078;-78
2022/12/19 10:32:28;;;;;;;60.55;26.35;;;;;;;3.34;100.00;101545.59;4983290;28;20122;-78
2022/12/19 10:34:54;;;;;;;59.22;24.73;;;;;;;3.39;100.00;101548.72;4953328;28;20719;-78
2022/12/19 10:37:25;;;;;;;60.58;25.10;;;;;;;3.42;100.00;101542.56;4957805;28;20122;-79
2022/12/19 10:40:04;;;;;;;61.03;26.40;;;;;;;3.57;100.00;101530.56;4969590;28;20053;-78
2022/12/19 10:42:47;;;;;;;57.60;23.83;;;;;;;3.48;100.00;101535.34;4974401;28;20026;-78
2022/12/19 10:45:17;;;;;;;49.90;22.23;;;;;;;3.40;100.00;101518.75;4968376;28;20492;-78
2022/12/19 10:47:45;;;;;;;59.20;24.42;;;;;;;3.42;100.00;101507.50;4968140;28;20470;-79
2022/12/19 10:50:13;;;;;;;57.85;24.65;;;;;;;3.46;100.00;101505.56;4960646;28;20043;-79
2022/12/19 10:52:47;;;;;;;58.45;24.00;;;;;;;3.45;100.00;101512.44;4955004;28;20030;-80
2022/12/19 10:55:23;;;;;;;64.18;25.08;;;;;;;3.42;100.00;101506.69;4969758;28;20035;-78
2022/12/19 10:57:48;;;;;;;60.22;23.52;;;;;;;3.32;100.00;101514.09;4962711;28;20034;-77
2022/12/19 11:00:16;;;;;;;60.03;24.23;;;;;;;3.37;100.00;101514.66;4970290;28;20046;-78
2022/12/19 11:02:50;;;;;;;59.60;25.05;;;;;;;3.44;100.00;101513.34;4968667;28;20062;-78
2022/12/19 11:05:23;;;;;;;59.40;25.58;;;;;;;3.47;100.00;101510.59;4965082;28;20027;-78
2022/12/19 11:08:00;;;;;;;57.45;23.67;;;;;;;3.48;100.00;101512.28;4964411;28;20043;-78
2022/12/19 11:10:42;;;;;;;57.10;23.30;;;;;;;3.47;100.00;101517.50;4962877;28;20489;-77
2022/12/19 11:13:23;;;;;;;58.17;24.30;;;;;;;3.49;100.00;101503.66;4981598;28;20053;-78
2022/12/19 11:15:54;;;;;;;59.47;25.20;;;;;;;3.51;100.00;101506.13;4969546;28;20467;-77
2022/12/19 11:18:21;;;;;;;60.03;25.42;;;;;;;3.53;100.00;101499.16;4970427;28;20116;-78
2022/12/19 11:20:55;;;;;;;59.58;23.60;;;;;;;3.51;100.00;101501.00;4967578;28;20129;-78
2022/12/19 11:23:23;;;;;;;57.20;24.15;;;;;;;3.58;100.00;101499.72;4965792;28;20050;-78